Time;durP1;ratioP1;P1;durP2;ratioP2;P2;SDS_P1;SDS_P2;PMS_P1;PMS_P2;Temp;Humidity;BMP_temperature;BMP_pressure;BME280_temperature;BME280_humidity;BME280_pressure;Samples;Min_cycle;Max_cycle;Signal;HPM_P1;HPM_P2
2023/03/20 00:01:17;;;;;;;4.23;2.93;;;;;;;6.64;100.00;96557.56;10373523;28;20205;-61
2023/03/20 00:06:19;;;;;;;5.13;3.30;;;;;;;6.58;100.00;96554.53;10373325;28;20236;-62
2023/03/20 00:11:30;;;;;;;3.87;2.90;;;;;;;6.63;100.00;96563.72;10373826;28;20220;-62
2023/03/20 00:16:33;;;;;;;4.73;3.17;;;;;;;6.52;100.00;96557.66;10373161;28;20261;-61
2023/03/20 00:21:33;;;;;;;3.70;3.20;;;;;;;6.57;100.00;96565.06;10377574;22;20252;-64
2023/03/20 00:26:34;;;;;;;4.93;2.73;;;;;;;6.59;100.00;96566.59;10389836;28;20209;-62
2023/03/20 00:31:38;;;;;;;5.63;3.37;;;;;;;6.73;100.00;96569.75;10413079;28;20216;-64
2023/03/20 00:36:39;;;;;;;8.10;4.10;;;;;;;6.86;100.00;96574.69;10412942;28;20215;-62
2023/03/20 00:41:46;;;;;;;4.67;3.00;;;;;;;7.30;100.00;96565.50;10401396;28;20739;-63
2023/03/20 00:46:53;;;;;;;6.47;3.63;;;;;;;7.70;100.00;96553.16;10354048;28;20555;-63
2023/03/20 00:51:53;;;;;;;4.90;2.70;;;;;;;7.89;100.00;96549.69;10371613;28;20956;-64
2023/03/20 00:56:57;;;;;;;4.93;3.07;;;;;;;8.02;100.00;96547.56;10371456;28;20213;-63
2023/03/20 01:01:59;;;;;;;5.20;3.23;;;;;;;8.06;100.00;96542.88;10353584;28;20216;-64
2023/03/20 01:06:59;;;;;;;3.57;2.77;;;;;;;8.13;100.00;96543.09;10353336;28;20679;-63
2023/03/20 01:12:00;;;;;;;7.00;2.90;;;;;;;8.17;100.00;96547.88;10370988;28;20221;-63
2023/03/20 01:17:00;;;;;;;3.97;2.63;;;;;;;8.20;100.00;96536.34;10352900;28;20216;-62
2023/03/20 01:22:01;;;;;;;3.40;2.63;;;;;;;8.04;100.00;96537.00;10370102;28;20581;-63
2023/03/20 01:27:04;;;;;;;3.20;2.57;;;;;;;8.09;100.00;96532.16;10370134;28;20197;-64
2023/03/20 01:32:09;;;;;;;4.40;2.53;;;;;;;8.07;100.00;96534.09;10353104;28;20224;-63
2023/03/20 01:37:17;;;;;;;4.47;2.67;;;;;;;7.95;100.00;96530.03;10336208;28;20608;-63
2023/03/20 01:42:18;;;;;;;4.53;2.80;;;;;;;7.71;100.00;96541.78;10335737;28;20213;-63
2023/03/20 01:47:22;;;;;;;2.90;2.60;;;;;;;7.50;100.00;96547.19;10369683;28;20190;-62
2023/03/20 01:52:24;;;;;;;3.33;2.20;;;;;;;7.52;100.00;96549.66;10351670;28;20252;-62
2023/03/20 01:57:25;;;;;;;5.00;2.70;;;;;;;7.56;100.00;96545.81;10351234;28;20224;-62
2023/03/20 02:02:29;;;;;;;2.97;2.30;;;;;;;7.53;100.00;96546.91;10350717;28;20204;-63
2023/03/20 02:07:31;;;;;;;4.47;2.90;;;;;;;7.59;100.00;96548.94;10350941;28;20193;-62
2023/03/20 02:12:40;;;;;;;3.77;2.60;;;;;;;7.68;100.00;96544.66;10350627;28;20220;-62
2023/03/20 02:17:43;;;;;;;4.33;2.50;;;;;;;7.70;100.00;96539.31;10334673;28;20213;-63
2023/03/20 02:22:49;;;;;;;4.03;2.57;;;;;;;7.85;100.00;96530.88;10349554;28;20229;-62
2023/03/20 02:28:37;;;;;;;3.60;2.70;;;;;;;7.88;100.00;96531.56;10334160;28;20669;-62
2023/03/20 02:33:44;;;;;;;4.50;2.63;;;;;;;8.02;100.00;96536.28;10350258;28;20722;-62
2023/03/20 02:38:53;;;;;;;5.03;2.73;;;;;;;7.97;100.00;96539.34;10349880;28;20225;-63
2023/03/20 02:44:08;;;;;;;4.00;2.57;;;;;;;8.06;100.00;96542.88;10333866;28;20217;-63
2023/03/20 02:49:24;;;;;;;2.80;2.40;;;;;;;8.03;100.00;96536.16;10332450;28;20564;-63
2023/03/20 02:55:09;;;;;;;2.47;2.27;;;;;;;8.07;100.00;96538.47;10367172;28;20609;-62
2023/03/20 03:00:12;;;;;;;3.93;2.37;;;;;;;8.11;100.00;96540.63;10349331;28;20212;-63
2023/03/20 03:05:18;;;;;;;3.10;2.80;;;;;;;8.18;100.00;96544.31;10348855;28;20189;-62
2023/03/20 03:10:29;;;;;;;4.90;4.37;;;;;;;8.18;100.00;96533.88;10366175;28;20185;-62
2023/03/20 03:15:39;;;;;;;3.70;3.30;;;;;;;8.22;100.00;96537.00;10349073;28;20243;-62
2023/03/20 03:20:39;;;;;;;2.40;2.20;;;;;;;8.17;100.00;96544.47;10348260;28;20719;-63
2023/03/20 03:25:40;;;;;;;4.07;3.00;;;;;;;8.04;100.00;96543.00;10332452;28;20193;-64
2023/03/20 03:30:42;;;;;;;4.80;2.40;;;;;;;8.11;100.00;96535.41;10348671;28;20582;-63
2023/03/20 03:35:43;;;;;;;2.27;2.07;;;;;;;8.06;100.00;96524.59;10332238;28;20201;-63
2023/03/20 03:40:49;;;;;;;3.23;2.03;;;;;;;7.85;100.00;96519.63;10331667;28;20221;-63
2023/03/20 03:46:01;;;;;;;4.47;2.70;;;;;;;7.85;100.00;96528.25;10332281;28;20197;-63
2023/03/20 03:51:08;;;;;;;4.67;3.40;;;;;;;7.64;100.00;96543.31;10332327;28;20209;-63
2023/03/20 03:56:15;;;;;;;3.70;2.80;;;;;;;7.60;100.00;96542.78;10332250;28;20223;-62
2023/03/20 04:01:17;;;;;;;2.97;2.20;;;;;;;7.54;100.00;96547.75;10347963;28;20271;-62
2023/03/20 04:06:18;;;;;;;5.60;3.03;;;;;;;7.26;100.00;96551.09;10331065;28;20248;-63
2023/03/20 04:11:21;;;;;;;7.00;2.63;;;;;;;7.37;100.00;96552.72;10331198;28;20252;-62
2023/03/20 04:16:22;;;;;;;3.13;2.40;;;;;;;7.37;100.00;96551.91;10330918;28;20209;-62
2023/03/20 04:21:23;;;;;;;2.97;2.47;;;;;;;7.23;100.00;96543.56;10346786;28;20324;-63
2023/03/20 04:26:25;;;;;;;2.90;2.60;;;;;;;7.48;100.00;96552.53;10347064;28;20201;-62
2023/03/20 04:31:27;;;;;;;2.70;2.50;;;;;;;7.57;100.00;96543.06;10347241;28;20217;-62
2023/03/20 04:36:46;;;;;;;5.53;2.50;;;;;;;7.60;100.00;96560.22;10364720;28;20216;-64
2023/03/20 04:41:49;;;;;;;4.20;2.70;;;;;;;7.50;100.00;96561.06;10331009;28;20630;-64
2023/03/20 04:46:49;;;;;;;3.27;2.50;;;;;;;7.57;100.00;96552.69;10371407;28;20181;-62
2023/03/20 04:51:50;;;;;;;3.03;2.40;;;;;;;7.35;100.00;96556.41;10353628;28;20209;-63
2023/03/20 04:57:01;;;;;;;3.60;2.60;;;;;;;7.48;100.00;96555.16;10353623;28;20217;-63
2023/03/20 05:02:02;;;;;;;3.43;2.27;;;;;;;7.63;100.00;96557.31;10353086;28;20296;-64
2023/03/20 05:07:02;;;;;;;2.93;2.30;;;;;;;7.67;100.00;96562.09;10353643;28;20998;-63
2023/03/20 05:12:12;;;;;;;4.17;2.90;;;;;;;7.64;100.00;96564.16;10353203;28;20638;-64
2023/03/20 05:17:37;;;;;;;3.47;2.77;;;;;;;7.71;100.00;96572.25;10353176;28;20209;-64
2023/03/20 05:22:56;;;;;;;4.37;2.93;;;;;;;7.64;100.00;96567.59;10369679;28;20697;-64
2023/03/20 05:28:23;;;;;;;3.57;2.83;;;;;;;7.66;100.00;96580.50;10352594;28;20225;-61
2023/03/20 05:33:46;;;;;;;7.80;2.90;;;;;;;7.62;100.00;96581.75;10369361;28;20248;-63
2023/03/20 05:38:52;;;;;;;5.43;3.00;;;;;;;7.67;100.00;96582.13;10369672;28;20219;-63
2023/03/20 05:44:03;;;;;;;4.27;3.40;;;;;;;7.77;100.00;96593.34;10352090;28;20217;-63
2023/03/20 05:49:17;;;;;;;5.47;3.33;;;;;;;7.84;100.00;96604.88;10351897;28;20605;-62
2023/03/20 05:54:36;;;;;;;4.07;3.10;;;;;;;7.89;100.00;96607.06;10368306;28;20225;-63
2023/03/20 05:59:49;;;;;;;3.90;3.07;;;;;;;7.89;100.00;96614.88;10351574;28;20217;-62
2023/03/20 06:05:09;;;;;;;5.37;4.23;;;;;;;7.88;100.00;96607.19;10369354;28;20194;-63
2023/03/20 06:10:19;;;;;;;9.83;8.83;;;;;;;7.97;100.00;96614.16;10351253;28;20275;-62
2023/03/20 06:15:20;;;;;;;4.93;3.60;;;;;;;8.07;100.00;96609.75;10367337;28;20185;-62
2023/03/20 06:20:28;;;;;;;3.70;3.40;;;;;;;7.98;100.00;96616.63;10349705;28;20218;-62
2023/03/20 06:25:29;;;;;;;5.67;3.20;;;;;;;8.01;100.00;96618.16;10404741;22;20331;-62
2023/03/20 06:30:30;;;;;;;3.17;2.80;;;;;;;8.31;100.00;96624.06;10420929;28;20191;-62
2023/03/20 06:35:31;;;;;;;5.10;3.43;;;;;;;8.13;100.00;96624.81;10432650;28;20235;-62
2023/03/20 06:40:32;;;;;;;5.03;3.03;;;;;;;8.39;100.00;96619.75;10431617;28;20211;-63
2023/03/20 06:45:32;;;;;;;6.80;3.83;;;;;;;8.23;100.00;96631.78;10449695;28;20207;-63
2023/03/20 06:50:35;;;;;;;3.20;2.90;;;;;;;8.02;100.00;96627.59;10431706;28;20184;-60
2023/03/20 06:55:36;;;;;;;3.47;3.10;;;;;;;7.71;100.00;96640.03;10431204;28;20214;-63
2023/03/20 07:00:36;;;;;;;5.93;3.97;;;;;;;7.80;100.00;96641.81;10431252;28;20218;-61
2023/03/20 07:05:39;;;;;;;5.40;3.70;;;;;;;7.88;100.00;96628.06;10430736;28;20210;-63
2023/03/20 07:10:42;;;;;;;9.33;4.10;;;;;;;8.09;100.00;96631.28;10430971;28;20184;-63
2023/03/20 07:15:42;;;;;;;6.37;3.83;;;;;;;8.54;100.00;96625.34;10430882;28;20219;-63
2023/03/20 07:20:46;;;;;;;7.87;4.40;;;;;;;8.27;100.00;96633.97;10419664;28;20594;-63
2023/03/20 07:25:46;;;;;;;8.20;4.03;;;;;;;8.31;100.00;96643.13;10412349;28;20235;-59
2023/03/20 07:30:50;;;;;;;7.50;4.27;;;;;;;8.44;100.00;96637.63;10415915;28;20216;-61
2023/03/20 07:35:52;;;;;;;5.13;4.60;;;;;;;8.71;100.00;96642.03;10429774;28;20710;-60
2023/03/20 07:40:54;;;;;;;7.10;4.90;;;;;;;8.97;100.00;96643.91;10446892;28;20223;-63
2023/03/20 07:45:54;;;;;;;5.00;4.53;;;;;;;9.08;100.00;96640.25;10447999;28;20917;-62
2023/03/20 07:50:54;;;;;;;5.93;4.83;;;;;;;8.98;100.00;96645.56;10418671;28;20283;-63
2023/03/20 07:55:55;;;;;;;6.93;4.20;;;;;;;9.15;100.00;96637.88;10416780;28;20217;-61
2023/03/20 08:00:57;;;;;;;6.93;4.83;;;;;;;9.50;100.00;96636.22;10417390;28;20311;-61
2023/03/20 08:05:57;;;;;;;6.13;4.23;;;;;;;9.84;100.00;96636.28;10447833;28;20226;-63
2023/03/20 08:10:58;;;;;;;4.93;3.90;;;;;;;9.88;100.00;96632.41;10441373;28;20177;-63
2023/03/20 08:15:58;;;;;;;8.13;4.47;;;;;;;9.88;100.00;96640.25;10438134;28;20220;-64
2023/03/20 08:20:58;;;;;;;5.53;4.80;;;;;;;9.71;100.00;96636.72;10412977;28;20221;-63
2023/03/20 08:25:59;;;;;;;6.70;5.40;;;;;;;10.50;100.00;96629.63;10435795;28;20374;-61
2023/03/20 08:30:59;;;;;;;6.10;4.78;;;;;;;11.09;100.00;96612.25;10431956;28;20188;-63
2023/03/20 08:35:59;;;;;;;6.57;5.32;;;;;;;10.22;100.00;96625.56;10427860;28;20209;-62
2023/03/20 08:41:00;;;;;;;8.70;6.47;;;;;;;10.03;100.00;96653.59;10410903;28;20257;-64
2023/03/20 08:46:00;;;;;;;8.67;6.57;;;;;;;10.14;100.00;96655.94;10410187;28;20220;-64
2023/03/20 08:51:01;;;;;;;10.77;8.13;;;;;;;10.30;100.00;96660.44;10410648;28;20258;-63
2023/03/20 08:56:01;;;;;;;11.70;8.50;;;;;;;10.30;100.00;96665.66;10421675;28;20215;-63
2023/03/20 09:01:07;;;;;;;14.80;8.68;;;;;;;10.32;100.00;96657.66;10451802;28;20192;-63
2023/03/20 09:06:08;;;;;;;10.07;8.82;;;;;;;10.82;100.00;96656.91;10451297;28;20751;-63
2023/03/20 09:11:08;;;;;;;16.77;10.57;;;;;;;10.43;100.00;96656.59;10451155;28;20192;-62
2023/03/20 09:16:09;;;;;;;13.13;10.80;;;;;;;9.94;100.00;96665.00;10437450;28;20212;-63
2023/03/20 09:21:09;;;;;;;13.50;10.90;;;;;;;9.77;100.00;96674.50;10444180;28;20207;-63
2023/03/20 09:26:10;;;;;;;15.03;11.80;;;;;;;9.64;100.00;96680.94;10448654;28;20331;-63
2023/03/20 09:31:10;;;;;;;18.07;13.83;;;;;;;10.12;100.00;96672.78;10448746;28;20203;-62
2023/03/20 09:36:11;;;;;;;15.93;13.30;;;;;;;11.16;100.00;96652.56;10446364;28;20212;-62
2023/03/20 09:41:17;;;;;;;14.38;11.32;;;;;;;12.52;98.07;96611.72;10431232;28;20199;-64
2023/03/20 09:46:26;;;;;;;11.18;8.75;;;;;;;12.77;91.95;96591.38;10431244;28;20237;-64
2023/03/20 09:51:47;;;;;;;10.02;8.52;;;;;;;12.61;89.37;96602.81;10449475;28;20282;-64
2023/03/20 09:56:49;;;;;;;12.65;10.85;;;;;;;11.55;92.45;96633.59;10447263;28;20288;-63
2023/03/20 10:01:56;;;;;;;11.30;8.35;;;;;;;11.90;95.63;96639.47;10447903;28;20210;-64
2023/03/20 10:06:57;;;;;;;6.95;5.55;;;;;;;13.64;84.47;96577.13;10439810;28;20761;-62
2023/03/20 10:12:41;;;;;;;5.53;4.85;;;;;;;15.56;73.80;96497.75;10425920;28;20250;-64
2023/03/20 10:17:54;;;;;;;5.90;5.13;;;;;;;12.33;81.91;96582.25;10424783;28;20221;-61
2023/03/20 10:22:58;;;;;;;5.90;4.75;;;;;;;12.75;82.13;96588.94;10427336;28;20652;-62
2023/03/20 10:28:03;;;;;;;7.07;5.35;;;;;;;13.86;78.38;96562.28;10431357;28;20203;-60
2023/03/20 10:33:27;;;;;;;5.78;5.18;;;;;;;13.63;77.11;96539.47;10429289;28;20200;-62
2023/03/20 10:38:27;;;;;;;5.93;5.32;;;;;;;14.27;77.33;96573.16;10447186;28;20819;-64
2023/03/20 10:43:33;;;;;;;7.70;6.90;;;;;;;13.10;80.44;96586.75;10446772;28;20227;-62
2023/03/20 10:48:40;;;;;;;7.45;6.75;;;;;;;12.85;83.90;96621.09;10429576;28;20721;-62
2023/03/20 10:53:46;;;;;;;9.07;7.55;;;;;;;12.85;86.09;96620.28;10408933;28;20318;-62
2023/03/20 10:58:49;;;;;;;8.70;6.78;;;;;;;14.20;79.84;96568.81;10425352;28;20327;-61
2023/03/20 11:03:49;;;;;;;7.85;5.68;;;;;;;14.01;77.38;96551.72;10408495;28;20216;-61
2023/03/20 11:08:52;;;;;;;7.88;6.22;;;;;;;12.48;82.25;96584.97;10424255;28;20291;-63
2023/03/20 11:13:53;;;;;;;7.13;6.25;;;;;;;12.77;83.36;96602.75;10422009;28;20218;-63
2023/03/20 11:18:53;;;;;;;8.10;6.57;;;;;;;12.66;82.30;96585.56;10422462;28;20291;-63
2023/03/20 11:23:54;;;;;;;9.57;6.35;;;;;;;11.89;85.43;96609.75;10445395;28;20243;-62
2023/03/20 11:28:56;;;;;;;8.55;7.15;;;;;;;11.65;89.28;96631.59;10445899;28;20210;-62
2023/03/20 11:34:03;;;;;;;8.57;7.68;;;;;;;11.18;93.42;96640.94;10427810;28;20243;-62
2023/03/20 11:39:13;;;;;;;8.13;7.20;;;;;;;11.52;92.70;96626.06;10443643;28;20253;-61
2023/03/20 11:44:30;;;;;;;12.40;8.35;;;;;;;11.48;93.45;96630.78;10445658;28;20223;-62
2023/03/20 11:49:46;;;;;;;8.40;7.55;;;;;;;11.94;92.69;96614.53;10445262;28;20215;-62
2023/03/20 11:54:50;;;;;;;12.55;7.55;;;;;;;11.97;90.97;96589.75;10433457;28;20258;-62
2023/03/20 11:59:50;;;;;;;8.48;6.78;;;;;;;12.77;86.84;96575.63;10453892;28;20315;-62
2023/03/20 12:04:50;;;;;;;10.70;7.85;;;;;;;13.15;83.45;96558.09;10435625;28;20962;-62
2023/03/20 12:09:57;;;;;;;11.10;8.70;;;;;;;13.13;85.23;96575.06;10452030;28;20572;-60
2023/03/20 12:15:22;;;;;;;12.05;9.80;;;;;;;12.77;88.49;96589.59;10453283;28;20639;-62
2023/03/20 12:20:35;;;;;;;13.00;10.38;;;;;;;12.15;92.64;96608.75;10453226;28;20235;-60
2023/03/20 12:25:56;;;;;;;13.40;10.93;;;;;;;12.15;93.48;96600.06;10434887;28;20791;-62
2023/03/20 12:31:02;;;;;;;13.88;10.18;;;;;;;12.23;93.18;96602.66;10434851;28;20195;-62
2023/03/20 12:36:05;;;;;;;13.52;9.90;;;;;;;12.21;91.83;96587.06;10452633;28;20208;-62
2023/03/20 12:41:35;;;;;;;13.10;9.93;;;;;;;12.11;94.57;96610.06;10433495;28;20307;-62
2023/03/20 12:46:54;;;;;;;12.55;9.23;;;;;;;11.38;100.00;96625.72;10436640;28;20215;-58
2023/03/20 12:52:21;;;;;;;14.55;10.27;;;;;;;11.23;100.00;96640.47;10429703;28;20197;-61
2023/03/20 12:57:35;;;;;;;11.38;8.57;;;;;;;10.22;100.00;96625.56;10426776;28;20693;-62
2023/03/20 13:02:41;;;;;;;8.48;6.53;;;;;;;10.66;100.00;96602.66;10411148;22;20674;-62
2023/03/20 13:07:41;;;;;;;7.78;5.78;;;;;;;12.11;100.00;96610.06;10389663;28;20682;-61
2023/03/20 13:12:55;;;;;;;6.47;5.70;;;;;;;12.94;100.00;96598.22;10366263;28;20217;-62
2023/03/20 13:18:04;;;;;;;8.25;5.97;;;;;;;13.06;100.00;96571.50;10368359;28;20217;-61
2023/03/20 13:23:40;;;;;;;7.82;6.10;;;;;;;12.37;99.57;96569.59;10368303;28;20218;-62
2023/03/20 13:29:02;;;;;;;10.43;6.85;;;;;;;12.27;100.00;96589.00;10336066;28;20203;-62
2023/03/20 13:34:25;;;;;;;8.68;6.70;;;;;;;11.90;98.77;96569.41;10367010;28;20237;-61
2023/03/20 13:39:41;;;;;;;9.18;6.93;;;;;;;11.35;100.00;96575.41;10365719;28;20660;-62
2023/03/20 13:44:42;;;;;;;10.20;6.68;;;;;;;11.31;100.00;96593.25;10365184;28;20804;-62
2023/03/20 13:49:57;;;;;;;11.13;7.78;;;;;;;10.98;100.00;96600.25;10367284;28;20656;-62
2023/03/20 13:55:13;;;;;;;12.90;8.93;;;;;;;10.02;100.00;96623.16;10366335;28;20307;-63
2023/03/20 14:00:23;;;;;;;5.00;2.80;;;;;;;8.71;100.00;96604.63;10365627;28;20699;-63
2023/03/20 14:05:37;;;;;;;6.13;3.00;;;;;;;8.20;100.00;96612.03;10366258;28;20306;-63
2023/03/20 14:10:38;;;;;;;5.03;3.97;;;;;;;8.12;100.00;96615.34;10366210;28;20225;-62
2023/03/20 14:15:45;;;;;;;3.23;2.93;;;;;;;8.50;100.00;96617.94;10364795;28;21118;-63
2023/03/20 14:20:52;;;;;;;3.40;2.40;;;;;;;8.47;100.00;96608.63;10364621;28;20312;-63
2023/03/20 14:25:53;;;;;;;4.00;3.07;;;;;;;8.37;100.00;96594.75;10363728;28;20205;-63
2023/03/20 14:31:20;;;;;;;5.13;3.90;;;;;;;8.44;100.00;96601.09;10363264;28;20664;-63
2023/03/20 14:36:26;;;;;;;3.63;3.10;;;;;;;8.51;100.00;96594.28;10361482;28;20197;-63
2023/03/20 14:41:41;;;;;;;4.53;4.10;;;;;;;8.55;100.00;96603.47;10362514;28;20192;-62
2023/03/20 14:46:41;;;;;;;9.63;8.10;;;;;;;8.62;100.00;96606.34;10363339;28;20770;-62
2023/03/20 14:51:44;;;;;;;4.23;3.83;;;;;;;8.31;100.00;96616.22;10362936;28;20213;-62
2023/03/20 14:56:45;;;;;;;6.50;5.00;;;;;;;8.36;100.00;96616.59;10361587;28;20700;-62
2023/03/20 15:01:51;;;;;;;8.87;6.83;;;;;;;8.44;100.00;96606.31;10360911;28;20229;-65
2023/03/20 15:07:15;;;;;;;10.47;7.40;;;;;;;8.42;100.00;96607.38;10359815;28;20197;-62
2023/03/20 15:12:19;;;;;;;7.10;6.17;;;;;;;8.71;100.00;96602.84;10358073;28;20223;-63
2023/03/20 15:17:35;;;;;;;7.73;6.13;;;;;;;8.75;100.00;96595.53;10363059;28;20213;-61
2023/03/20 15:22:46;;;;;;;6.90;5.20;;;;;;;8.84;100.00;96589.41;10361113;28;20240;-62
2023/03/20 15:27:48;;;;;;;8.03;5.73;;;;;;;8.77;100.00;96585.75;10360573;28;20201;-61
2023/03/20 15:32:52;;;;;;;6.77;5.63;;;;;;;9.00;100.00;96580.91;10359157;28;20212;-61
2023/03/20 15:37:53;;;;;;;5.90;4.97;;;;;;;8.97;100.00;96577.78;10358948;28;20225;-62
2023/03/20 15:43:03;;;;;;;5.30;4.67;;;;;;;8.96;100.00;96581.34;10363454;28;20260;-61
2023/03/20 15:48:05;;;;;;;6.43;5.67;;;;;;;8.82;100.00;96570.47;10362267;28;20213;-62
2023/03/20 15:53:09;;;;;;;10.57;7.53;;;;;;;8.74;100.00;96586.03;10362704;28;20220;-62
2023/03/20 15:58:11;;;;;;;7.57;5.93;;;;;;;8.80;100.00;96589.88;10362000;28;20229;-62
2023/03/20 16:03:18;;;;;;;6.67;4.97;;;;;;;8.72;100.00;96594.03;10362767;28;20244;-62
2023/03/20 16:08:27;;;;;;;7.90;5.33;;;;;;;8.53;100.00;96608.03;10362763;28;20186;-62
2023/03/20 16:13:35;;;;;;;7.83;5.57;;;;;;;8.42;100.00;96607.38;10363538;28;20225;-64
2023/03/20 16:18:37;;;;;;;9.23;5.20;;;;;;;8.31;100.00;96597.97;10363316;28;20228;-64
2023/03/20 16:23:40;;;;;;;7.97;5.00;;;;;;;8.21;100.00;96601.44;10360776;28;20802;-63
2023/03/20 16:28:40;;;;;;;7.27;4.50;;;;;;;8.08;100.00;96603.53;10361446;28;20308;-63
2023/03/20 16:33:41;;;;;;;5.97;4.80;;;;;;;7.81;100.00;96610.38;10363121;28;20221;-63
2023/03/20 16:38:53;;;;;;;6.10;5.27;;;;;;;7.73;100.00;96609.44;10360832;28;20271;-63
2023/03/20 16:43:54;;;;;;;8.53;5.23;;;;;;;7.70;100.00;96614.94;10366733;28;20267;-63
2023/03/20 16:48:57;;;;;;;7.07;5.40;;;;;;;7.63;100.00;96620.69;10367186;28;20190;-64
2023/03/20 16:54:00;;;;;;;6.60;5.70;;;;;;;7.57;100.00;96615.25;10370196;28;20283;-64
2023/03/20 16:59:14;;;;;;;9.47;5.37;;;;;;;7.64;100.00;96621.50;10362324;28;20213;-65
2023/03/20 17:04:47;;;;;;;6.97;6.13;;;;;;;7.63;100.00;96619.88;10375365;28;20711;-64
2023/03/20 17:10:15;;;;;;;33.30;14.93;;;;;;;7.52;100.00;96630.47;10375607;28;20197;-64
2023/03/20 17:15:19;;;;;;;13.00;10.27;;;;;;;7.43;100.00;96632.13;10375712;28;20217;-65
2023/03/20 17:20:22;;;;;;;8.67;7.20;;;;;;;7.32;100.00;96631.31;10375199;28;20231;-65
2023/03/20 17:25:22;;;;;;;12.13;10.80;;;;;;;7.39;100.00;96626.34;10374812;28;20225;-64
2023/03/20 17:30:24;;;;;;;10.00;7.87;;;;;;;7.30;100.00;96632.41;10373473;28;20193;-64
2023/03/20 17:35:24;;;;;;;13.90;9.70;;;;;;;7.23;100.00;96631.28;10374841;28;20232;-65
2023/03/20 17:40:25;;;;;;;12.37;8.47;;;;;;;7.26;100.00;96631.06;10374119;28;20235;-65
2023/03/20 17:45:26;;;;;;;12.83;9.20;;;;;;;7.16;100.00;96638.84;10348767;28;20304;-65
2023/03/20 17:50:26;;;;;;;16.67;12.00;;;;;;;7.07;100.00;96639.66;10333429;28;20304;-64
2023/03/20 17:55:26;;;;;;;13.23;9.33;;;;;;;7.06;100.00;96633.66;10340997;28;20291;-64
2023/03/20 18:00:27;;;;;;;12.40;8.93;;;;;;;7.14;100.00;96631.16;10371858;28;20221;-64
2023/03/20 18:05:27;;;;;;;16.03;11.63;;;;;;;7.17;100.00;96637.91;10369807;28;20379;-64
2023/03/20 18:10:33;;;;;;;12.03;8.53;;;;;;;7.19;100.00;96628.16;10346016;28;20186;-63
2023/03/20 18:15:34;;;;;;;13.87;7.83;;;;;;;7.25;100.00;96622.38;10344477;28;20726;-64
2023/03/20 18:20:37;;;;;;;13.20;8.67;;;;;;;7.30;100.00;96609.78;10351784;28;20225;-63
2023/03/20 18:25:37;;;;;;;14.47;10.50;;;;;;;7.30;100.00;96611.56;10351416;28;20213;-62
2023/03/20 18:30:40;;;;;;;13.73;10.00;;;;;;;7.38;100.00;96609.09;10351497;28;20223;-63
2023/03/20 18:35:40;;;;;;;15.40;10.47;;;;;;;7.30;100.00;96611.56;10349676;28;20256;-63
2023/03/20 18:40:42;;;;;;;16.83;11.07;;;;;;;7.44;100.00;96618.97;10349141;28;20869;-62
2023/03/20 18:45:42;;;;;;;16.83;11.50;;;;;;;7.41;100.00;96615.78;10350030;28;20232;-63
2023/03/20 18:50:43;;;;;;;18.20;12.87;;;;;;;7.33;100.00;96616.47;10351572;28;20204;-63
2023/03/20 18:55:43;;;;;;;20.63;12.77;;;;;;;7.26;100.00;96616.22;10350746;28;20228;-64
2023/03/20 19:00:44;;;;;;;16.83;11.97;;;;;;;7.25;100.00;96617.19;10349782;28;20232;-63
2023/03/20 19:05:44;;;;;;;32.80;21.13;;;;;;;7.16;100.00;96630.22;10343653;28;20255;-63
2023/03/20 19:10:45;;;;;;;18.33;11.90;;;;;;;7.29;100.00;96628.16;10414131;23;20247;-62
2023/03/20 19:15:46;;;;;;;25.70;13.93;;;;;;;7.37;100.00;96625.69;10409270;28;20196;-62
2023/03/20 19:20:48;;;;;;;20.10;13.27;;;;;;;7.45;100.00;96617.97;10379272;28;20245;-62
2023/03/20 19:25:53;;;;;;;22.37;11.67;;;;;;;7.41;100.00;96611.41;10369958;28;20592;-62
2023/03/20 19:30:54;;;;;;;17.70;12.27;;;;;;;7.35;100.00;96619.78;10394739;28;20216;-62
2023/03/20 19:35:54;;;;;;;19.13;12.57;;;;;;;7.50;100.00;96605.38;10410098;28;20188;-60
2023/03/20 19:40:55;;;;;;;16.90;12.17;;;;;;;7.46;100.00;96608.41;10410534;28;20234;-62
2023/03/20 19:45:55;;;;;;;16.07;10.77;;;;;;;7.61;100.00;96598.34;10378546;28;20201;-62
2023/03/20 19:50:56;;;;;;;16.10;11.03;;;;;;;7.57;100.00;96594.38;10385049;28;20209;-62
2023/03/20 19:55:57;;;;;;;20.13;11.83;;;;;;;7.46;100.00;96600.59;10391308;28;20369;-61
2023/03/20 20:00:57;;;;;;;17.97;12.13;;;;;;;7.49;100.00;96598.50;10409783;28;20726;-61
2023/03/20 20:06:02;;;;;;;16.43;12.63;;;;;;;7.50;100.00;96599.31;10409168;28;20258;-62
2023/03/20 20:11:04;;;;;;;21.97;12.13;;;;;;;7.55;100.00;96601.50;10409250;28;20646;-62
2023/03/20 20:16:04;;;;;;;17.03;12.00;;;;;;;7.45;100.00;96597.13;10414381;28;20629;-62
2023/03/20 20:21:05;;;;;;;18.17;12.93;;;;;;;7.43;100.00;96596.47;10417352;28;20224;-61
2023/03/20 20:26:08;;;;;;;18.57;13.07;;;;;;;7.48;100.00;96596.84;10417522;28;20185;-59
2023/03/20 20:31:08;;;;;;;19.90;13.90;;;;;;;7.45;100.00;96581.50;10417214;28;20275;-60
2023/03/20 20:36:14;;;;;;;18.53;13.70;;;;;;;7.25;100.00;96575.50;10416583;28;20281;-59
2023/03/20 20:41:14;;;;;;;19.17;13.17;;;;;;;7.21;100.00;96589.75;10417127;28;20247;-61
2023/03/20 20:46:15;;;;;;;19.87;12.77;;;;;;;7.17;100.00;96584.94;10416286;28;20560;-60
2023/03/20 20:51:15;;;;;;;21.30;13.27;;;;;;;7.20;100.00;96582.06;10416536;28;20204;-61
2023/03/20 20:56:15;;;;;;;21.07;13.33;;;;;;;7.29;100.00;96584.69;10400054;28;20200;-61
2023/03/20 21:01:16;;;;;;;16.47;11.50;;;;;;;7.38;100.00;96587.41;10398747;28;20377;-60
2023/03/20 21:06:17;;;;;;;18.03;12.73;;;;;;;7.37;100.00;96581.38;10415501;28;20240;-61
2023/03/20 21:11:17;;;;;;;15.70;11.27;;;;;;;7.26;100.00;96582.34;10414370;28;20301;-60
2023/03/20 21:16:17;;;;;;;16.27;11.23;;;;;;;7.20;100.00;96587.28;10415770;28;20246;-61
2023/03/20 21:21:18;;;;;;;17.77;11.20;;;;;;;7.25;100.00;96588.53;10415193;28;20229;-59
2023/03/20 21:26:18;;;;;;;16.63;10.40;;;;;;;7.26;100.00;96579.75;10413659;28;20215;-62
2023/03/20 21:31:23;;;;;;;16.27;10.53;;;;;;;7.23;100.00;96574.81;10414984;28;20319;-62
2023/03/20 21:36:24;;;;;;;18.33;10.13;;;;;;;7.22;100.00;96575.78;10414633;28;20192;-62
2023/03/20 21:41:24;;;;;;;16.60;10.10;;;;;;;7.09;100.00;96580.44;10414937;28;20220;-62
2023/03/20 21:46:25;;;;;;;14.83;10.07;;;;;;;7.13;100.00;96576.59;10414550;28;20283;-62
2023/03/20 21:51:26;;;;;;;11.77;8.63;;;;;;;7.19;100.00;96575.22;10404445;28;20221;-62
2023/03/20 21:56:26;;;;;;;15.43;9.70;;;;;;;7.21;100.00;96568.91;10379965;28;20217;-62
2023/03/20 22:01:27;;;;;;;13.37;9.77;;;;;;;7.17;100.00;96580.59;10373392;28;20231;-62
2023/03/20 22:06:28;;;;;;;13.40;9.20;;;;;;;7.17;100.00;96579.75;10390984;28;20323;-62
2023/03/20 22:11:29;;;;;;;14.30;9.30;;;;;;;7.24;100.00;96584.28;10413987;28;20596;-62
2023/03/20 22:16:30;;;;;;;15.20;9.77;;;;;;;7.23;100.00;96598.25;10414015;28;20192;-62
2023/03/20 22:21:30;;;;;;;17.30;10.23;;;;;;;7.16;100.00;96594.56;10373404;28;20225;-62
2023/03/20 22:26:30;;;;;;;17.70;11.43;;;;;;;7.19;100.00;96598.69;10353197;28;20301;-62
2023/03/20 22:31:31;;;;;;;15.30;10.60;;;;;;;7.10;100.00;96603.75;10349444;28;20217;-63
2023/03/20 22:36:31;;;;;;;15.00;10.90;;;;;;;7.20;100.00;96603.75;10348310;28;20220;-62
2023/03/20 22:41:32;;;;;;;13.80;10.43;;;;;;;7.17;100.00;96597.97;10371359;28;20225;-62
2023/03/20 22:46:32;;;;;;;16.83;11.63;;;;;;;7.12;100.00;96601.00;10372269;28;20185;-61
2023/03/20 22:51:33;;;;;;;20.43;11.90;;;;;;;7.16;100.00;96612.78;10371963;28;20205;-62
2023/03/20 22:56:33;;;;;;;17.30;11.57;;;;;;;7.20;100.00;96608.13;10371752;28;20280;-62
2023/03/20 23:01:34;;;;;;;18.50;12.40;;;;;;;7.04;100.00;96609.50;10370959;28;20726;-62
2023/03/20 23:06:34;;;;;;;21.17;12.73;;;;;;;6.99;100.00;96613.50;10370784;28;20848;-62
2023/03/20 23:11:35;;;;;;;21.67;14.07;;;;;;;6.82;100.00;96615.81;10370988;28;20324;-60
2023/03/20 23:16:35;;;;;;;23.83;14.57;;;;;;;6.63;100.00;96627.03;10353144;28;20228;-57
2023/03/20 23:21:36;;;;;;;20.77;13.23;;;;;;;6.67;100.00;96615.34;10371089;28;20287;-59
2023/03/20 23:26:36;;;;;;;22.53;13.93;;;;;;;6.54;100.00;96606.97;10370704;28;20568;-60